Time;durP1;ratioP1;P1;durP2;ratioP2;P2;SDS_P1;SDS_P2;PMS_P1;PMS_P2;Temp;Humidity;BMP_temperature;BMP_pressure;BME280_temperature;BME280_humidity;BME280_pressure;Samples;Min_cycle;Max_cycle;Signal;HPM_P1;HPM_P2
2023/09/30 00:01:01;;;;;;;18.27;7.05;;;18.40;74.20;;;;;;4985976;28;20425;-63
2023/09/30 00:03:27;;;;;;;18.42;7.82;;;18.40;74.20;;;;;;4985689;28;20529;-63
2023/09/30 00:05:53;;;;;;;17.08;7.15;;;18.40;74.30;;;;;;4986078;28;20049;-64
2023/09/30 00:08:19;;;;;;;19.25;7.45;;;18.40;74.40;;;;;;4987033;28;20041;-63
2023/09/30 00:10:45;;;;;;;18.13;7.28;;;18.30;74.60;;;;;;4983373;28;20027;-64
2023/09/30 00:13:11;;;;;;;18.85;7.85;;;18.30;74.60;;;;;;4985380;28;20099;-63
2023/09/30 00:15:36;;;;;;;16.60;7.53;;;18.30;74.70;;;;;;4982767;28;20068;-63
2023/09/30 00:18:02;;;;;;;17.65;7.55;;;18.30;74.70;;;;;;4986284;28;20045;-63
2023/09/30 00:20:28;;;;;;;18.58;7.78;;;18.30;74.80;;;;;;4986441;28;20046;-62
2023/09/30 00:22:54;;;;;;;16.55;7.45;;;18.30;74.90;;;;;;4987435;28;20030;-62
2023/09/30 00:25:20;;;;;;;16.70;7.50;;;18.20;74.90;;;;;;4986911;28;20038;-64
2023/09/30 00:27:46;;;;;;;16.60;7.18;;;18.20;75.10;;;;;;4987322;28;20040;-63
2023/09/30 00:30:12;;;;;;;16.35;7.53;;;18.20;75.30;;;;;;4987182;28;20498;-63
2023/09/30 00:32:39;;;;;;;16.48;7.10;;;18.20;75.40;;;;;;4985972;28;20049;-64
2023/09/30 00:35:11;;;;;;;17.35;7.50;;;18.20;75.50;;;;;;4985790;28;20029;-64
2023/09/30 00:37:37;;;;;;;17.27;7.70;;;18.20;75.50;;;;;;4986362;28;20038;-63
2023/09/30 00:40:04;;;;;;;18.58;7.65;;;18.20;75.50;;;;;;4983496;28;20502;-64
2023/09/30 00:42:29;;;;;;;17.98;7.38;;;18.10;75.50;;;;;;4985176;28;20665;-63
2023/09/30 00:44:55;;;;;;;19.30;8.02;;;18.10;75.60;;;;;;4985865;28;20478;-64
2023/09/30 00:47:21;;;;;;;17.33;7.78;;;18.00;75.60;;;;;;4979166;28;20077;-64
2023/09/30 00:49:46;;;;;;;17.90;7.97;;;18.00;75.60;;;;;;4985522;28;20034;-63
2023/09/30 00:52:13;;;;;;;16.50;7.40;;;18.00;75.70;;;;;;4985455;28;20038;-63
2023/09/30 00:54:39;;;;;;;17.48;7.78;;;18.00;75.80;;;;;;4984077;28;20038;-63
2023/09/30 00:57:05;;;;;;;18.92;8.15;;;18.00;76.00;;;;;;4986285;28;20034;-63
2023/09/30 00:59:32;;;;;;;18.70;7.78;;;17.90;75.90;;;;;;4986544;28;20461;-63
2023/09/30 01:02:00;;;;;;;18.17;7.72;;;17.90;76.00;;;;;;4984233;28;20042;-63
2023/09/30 01:04:27;;;;;;;18.45;7.60;;;17.80;76.10;;;;;;4986459;28;20391;-63
2023/09/30 01:06:52;;;;;;;19.83;8.30;;;17.80;76.20;;;;;;4985934;28;20409;-64
2023/09/30 01:09:19;;;;;;;17.33;7.60;;;17.80;76.30;;;;;;4986759;28;20030;-63
2023/09/30 01:11:45;;;;;;;18.55;7.57;;;17.70;76.40;;;;;;4986395;28;20513;-63
2023/09/30 01:14:26;;;;;;;16.63;7.25;;;17.70;76.50;;;;;;4986786;28;20038;-63
2023/09/30 01:16:51;;;;;;;16.83;7.32;;;17.60;77.20;;;;;;4984930;28;20468;-63
2023/09/30 01:19:17;;;;;;;16.42;7.30;;;17.60;76.70;;;;;;4985359;28;20113;-63
2023/09/30 01:21:48;;;;;;;16.60;7.10;;;17.60;76.80;;;;;;4985542;28;20584;-63
2023/09/30 01:24:16;;;;;;;18.48;7.32;;;17.60;76.80;;;;;;4986388;28;20031;-63
2023/09/30 01:26:45;;;;;;;19.30;7.57;;;17.60;76.90;;;;;;4986001;28;20270;-63
2023/09/30 01:29:13;;;;;;;19.15;7.25;;;17.60;77.00;;;;;;4986133;28;20034;-62
2023/09/30 01:31:39;;;;;;;16.60;7.20;;;17.50;77.00;;;;;;4986573;28;20449;-63
2023/09/30 01:34:05;;;;;;;16.05;7.28;;;17.40;76.90;;;;;;4986184;28;20250;-63
2023/09/30 01:36:31;;;;;;;17.45;6.95;;;17.40;76.90;;;;;;4986017;28;20038;-63
2023/09/30 01:38:57;;;;;;;15.55;6.63;;;17.40;76.90;;;;;;4986560;28;20425;-63
2023/09/30 01:41:23;;;;;;;17.27;7.40;;;17.40;76.90;;;;;;4986689;28;20533;-62
2023/09/30 01:43:49;;;;;;;20.88;7.32;;;17.40;76.90;;;;;;4986449;28;20047;-63
2023/09/30 01:46:14;;;;;;;18.23;7.85;;;17.40;77.10;;;;;;4985678;28;20121;-63
2023/09/30 01:48:40;;;;;;;15.52;7.18;;;17.30;77.00;;;;;;4983838;28;20035;-63
2023/09/30 01:51:06;;;;;;;16.83;7.32;;;17.30;77.20;;;;;;4983318;28;20049;-63
2023/09/30 01:53:32;;;;;;;19.08;7.53;;;17.30;77.30;;;;;;4983077;28;20094;-63
2023/09/30 01:55:58;;;;;;;16.67;6.88;;;17.20;77.40;;;;;;4985372;28;20049;-63
2023/09/30 01:58:25;;;;;;;16.38;6.93;;;17.20;77.50;;;;;;4985677;28;20526;-63
2023/09/30 02:00:51;;;;;;;17.52;7.10;;;17.10;77.50;;;;;;4983891;28;20031;-63
2023/09/30 02:03:17;;;;;;;15.68;7.22;;;17.10;77.70;;;;;;4985572;28;20030;-63
2023/09/30 02:05:43;;;;;;;15.88;7.00;;;17.10;77.90;;;;;;4984064;28;20034;-63
2023/09/30 02:08:08;;;;;;;15.65;6.60;;;17.10;78.00;;;;;;4985246;28;20506;-63
2023/09/30 02:10:34;;;;;;;16.83;7.10;;;17.00;77.90;;;;;;4983918;28;20038;-63
2023/09/30 02:13:00;;;;;;;15.73;6.93;;;17.00;78.00;;;;;;4984676;28;20042;-63
2023/09/30 02:15:25;;;;;;;16.45;6.90;;;17.00;78.20;;;;;;4985927;28;20042;-63
2023/09/30 02:17:51;;;;;;;16.77;6.72;;;17.00;78.40;;;;;;4986032;28;20131;-63
2023/09/30 02:20:19;;;;;;;16.10;6.97;;;16.90;78.60;;;;;;4984437;28;20039;-63
2023/09/30 02:22:46;;;;;;;15.88;6.80;;;16.90;78.70;;;;;;4984759;28;20038;-63
2023/09/30 02:25:12;;;;;;;15.23;6.82;;;16.90;78.90;;;;;;4985629;28;20413;-63
2023/09/30 02:27:40;;;;;;;16.95;6.97;;;16.90;79.10;;;;;;4985548;28;20339;-62
2023/09/30 02:30:06;;;;;;;16.73;6.55;;;16.80;79.20;;;;;;4985512;28;20049;-63
2023/09/30 02:32:33;;;;;;;17.52;6.93;;;16.80;79.30;;;;;;4984895;28;20033;-63
2023/09/30 02:34:59;;;;;;;16.20;7.00;;;16.80;79.30;;;;;;4988063;28;20096;-63
2023/09/30 02:37:25;;;;;;;14.30;6.47;;;16.80;79.50;;;;;;4989072;28;20626;-63
2023/09/30 02:39:50;;;;;;;14.90;6.53;;;16.80;79.60;;;;;;4988774;28;20407;-63
2023/09/30 02:42:16;;;;;;;16.98;6.65;;;16.80;79.70;;;;;;4988099;28;20019;-63
2023/09/30 02:44:42;;;;;;;17.23;6.63;;;16.70;79.70;;;;;;4988373;28;20060;-63
2023/09/30 02:47:08;;;;;;;17.25;7.07;;;16.70;79.70;;;;;;4988284;28;20658;-63
2023/09/30 02:49:34;;;;;;;15.98;6.50;;;16.70;79.70;;;;;;4988728;28;20038;-63
2023/09/30 02:51:59;;;;;;;15.00;6.45;;;16.70;79.70;;;;;;4987623;28;20128;-63
2023/09/30 02:54:25;;;;;;;14.18;5.70;;;16.70;79.80;;;;;;4986994;28;20044;-64
2023/09/30 02:56:52;;;;;;;14.63;6.18;;;16.70;79.80;;;;;;4986976;28;20030;-63
2023/09/30 02:59:18;;;;;;;15.40;6.60;;;16.70;79.80;;;;;;4988498;28;20034;-62
2023/09/30 03:01:44;;;;;;;15.27;6.30;;;16.70;79.80;;;;;;4984981;28;20035;-64
2023/09/30 03:04:12;;;;;;;14.43;6.38;;;16.70;79.80;;;;;;4984121;28;20053;-63
2023/09/30 03:06:38;;;;;;;14.95;5.82;;;16.70;79.70;;;;;;4987443;28;20450;-63
2023/09/30 03:09:04;;;;;;;13.50;6.00;;;16.80;79.70;;;;;;4986958;28;20034;-62
2023/09/30 03:11:32;;;;;;;13.45;5.85;;;16.80;79.70;;;;;;4987014;28;20498;-63
2023/09/30 03:13:58;;;;;;;15.45;5.88;;;16.80;79.60;;;;;;4987818;28;20522;-63
2023/09/30 03:16:24;;;;;;;12.73;5.65;;;16.80;79.60;;;;;;4987720;28;20062;-63
2023/09/30 03:18:50;;;;;;;13.93;5.90;;;16.80;79.50;;;;;;4987488;28;20520;-63
2023/09/30 03:21:16;;;;;;;13.80;5.70;;;16.90;79.60;;;;;;4987315;28;20070;-64
2023/09/30 03:23:42;;;;;;;14.07;6.15;;;16.90;79.40;;;;;;4987807;28;20082;-63
2023/09/30 03:26:09;;;;;;;15.75;6.07;;;16.90;79.40;;;;;;4988447;28;20039;-63
2023/09/30 03:28:38;;;;;;;14.95;5.95;;;16.90;79.50;;;;;;4987676;28;20114;-63
2023/09/30 03:31:05;;;;;;;15.18;6.28;;;16.90;79.60;;;;;;4987377;28;20402;-62
2023/09/30 03:33:35;;;;;;;14.88;6.55;;;16.90;80.30;;;;;;4987028;28;20457;-63
2023/09/30 03:36:00;;;;;;;15.48;6.28;;;16.90;79.40;;;;;;4987288;28;20042;-63
2023/09/30 03:38:26;;;;;;;15.00;6.50;;;16.90;79.40;;;;;;4986657;28;20409;-63
2023/09/30 03:40:54;;;;;;;15.18;6.53;;;16.90;79.30;;;;;;4988091;28;20027;-63
2023/09/30 03:43:21;;;;;;;12.80;6.22;;;16.90;79.30;;;;;;4986945;28;20038;-63
2023/09/30 03:45:46;;;;;;;14.32;6.47;;;16.90;79.20;;;;;;4987578;28;20037;-63
2023/09/30 03:48:12;;;;;;;15.55;6.60;;;16.90;79.30;;;;;;4987675;28;20034;-64
2023/09/30 03:50:38;;;;;;;13.68;6.45;;;16.90;79.30;;;;;;4986992;28;20037;-63
2023/09/30 03:53:07;;;;;;;16.00;6.95;;;16.90;79.40;;;;;;4986618;28;20477;-63
2023/09/30 03:55:33;;;;;;;18.02;7.20;;;16.90;79.50;;;;;;4987742;28;20038;-63
2023/09/30 03:57:59;;;;;;;14.85;6.57;;;16.90;79.60;;;;;;4987362;28;20057;-63
2023/09/30 04:00:24;;;;;;;15.98;6.47;;;16.80;79.40;;;;;;4986103;28;20538;-63
2023/09/30 04:02:53;;;;;;;19.38;7.32;;;16.80;79.70;;;;;;4986533;28;20113;-63
2023/09/30 04:05:24;;;;;;;17.25;7.18;;;16.70;80.70;;;;;;4986392;28;20049;-61
2023/09/30 04:07:49;;;;;;;16.55;7.18;;;16.70;80.00;;;;;;4986808;28;20479;-63
2023/09/30 04:10:15;;;;;;;17.88;7.38;;;16.70;80.10;;;;;;4985575;28;20109;-63
2023/09/30 04:12:41;;;;;;;18.25;7.25;;;16.60;80.30;;;;;;4984687;28;20401;-63
2023/09/30 04:15:07;;;;;;;17.17;7.18;;;16.60;80.30;;;;;;4986480;28;20049;-61
2023/09/30 04:17:32;;;;;;;16.10;6.90;;;16.60;80.40;;;;;;4987029;28;20034;-63
2023/09/30 04:19:58;;;;;;;18.33;7.63;;;16.60;80.40;;;;;;4987107;28;20502;-63
2023/09/30 04:22:25;;;;;;;17.70;6.68;;;16.60;80.40;;;;;;4986195;28;20062;-63
2023/09/30 04:24:51;;;;;;;17.95;7.03;;;16.60;80.50;;;;;;4986302;28;20510;-63
2023/09/30 04:27:17;;;;;;;15.38;6.68;;;16.60;80.30;;;;;;4986489;28;20042;-63
2023/09/30 04:29:43;;;;;;;15.90;7.00;;;16.60;80.20;;;;;;4986449;28;20060;-62
2023/09/30 04:32:09;;;;;;;15.70;6.75;;;16.70;80.10;;;;;;4985495;28;20030;-63
2023/09/30 04:34:35;;;;;;;17.23;7.07;;;16.70;79.80;;;;;;4985842;28;20096;-63
2023/09/30 04:37:02;;;;;;;17.10;7.28;;;16.70;79.70;;;;;;4986540;28;20042;-63
2023/09/30 04:39:27;;;;;;;17.50;7.47;;;16.60;79.40;;;;;;4986211;28;20038;-62
2023/09/30 04:41:54;;;;;;;17.33;7.82;;;16.70;80.30;;;;;;4985683;28;20383;-63
2023/09/30 04:44:21;;;;;;;20.88;8.48;;;16.60;79.30;;;;;;4986272;28;20042;-63
2023/09/30 04:46:47;;;;;;;20.27;8.80;;;16.60;79.30;;;;;;4985306;28;20414;-63
2023/09/30 04:49:15;;;;;;;19.05;8.82;;;16.50;79.30;;;;;;4986511;28;20085;-63
2023/09/30 04:51:41;;;;;;;17.40;7.85;;;16.50;79.40;;;;;;4985375;28;20038;-63
2023/09/30 04:54:08;;;;;;;18.65;8.93;;;16.40;79.30;;;;;;4986288;28;20039;-63
2023/09/30 04:56:38;;;;;;;19.55;8.55;;;16.40;79.40;;;;;;4983849;28;20030;-63
2023/09/30 04:59:04;;;;;;;18.20;8.43;;;16.30;79.60;;;;;;4985577;28;20030;-63
2023/09/30 05:01:30;;;;;;;18.67;8.65;;;16.30;79.60;;;;;;4985489;28;20049;-63
2023/09/30 05:03:55;;;;;;;19.33;9.10;;;16.20;79.60;;;;;;4986499;28;20065;-63
2023/09/30 05:06:21;;;;;;;24.65;9.70;;;16.20;79.90;;;;;;4982139;28;20030;-63
2023/09/30 05:08:47;;;;;;;19.98;9.40;;;16.20;80.10;;;;;;4981035;28;20042;-63
2023/09/30 05:11:13;;;;;;;18.23;8.90;;;16.10;80.30;;;;;;4980941;28;20027;-63
2023/09/30 05:13:39;;;;;;;21.00;9.23;;;16.10;80.50;;;;;;4985015;28;20182;-63
2023/09/30 05:16:06;;;;;;;18.77;8.52;;;16.00;80.80;;;;;;4985436;28;20045;-63
2023/09/30 05:18:32;;;;;;;19.08;8.48;;;16.00;81.00;;;;;;4985856;28;20031;-63
2023/09/30 05:20:57;;;;;;;18.67;8.27;;;16.00;81.30;;;;;;4986458;28;20038;-63
2023/09/30 05:23:24;;;;;;;16.38;7.05;;;15.90;81.70;;;;;;4986249;28;20030;-62
2023/09/30 05:25:49;;;;;;;16.92;7.50;;;15.90;81.80;;;;;;4986033;28;20038;-63
2023/09/30 05:28:15;;;;;;;16.98;7.60;;;15.90;81.90;;;;;;4986647;28;20037;-63
2023/09/30 05:30:41;;;;;;;19.55;8.20;;;15.90;82.20;;;;;;4985883;28;20109;-63
2023/09/30 05:33:06;;;;;;;15.95;7.53;;;15.90;82.30;;;;;;4986647;28;20038;-63
2023/09/30 05:35:32;;;;;;;16.33;7.40;;;15.90;82.40;;;;;;4986797;28;20050;-63
2023/09/30 05:37:58;;;;;;;18.13;7.57;;;15.90;82.50;;;;;;4986712;28;20045;-63
2023/09/30 05:40:30;;;;;;;15.48;6.68;;;15.90;82.40;;;;;;4986656;28;20430;-63
2023/09/30 05:42:59;;;;;;;15.65;7.25;;;15.90;82.40;;;;;;4984787;28;20452;-63
2023/09/30 05:45:26;;;;;;;17.13;7.00;;;16.00;82.50;;;;;;4971540;28;21438;-63
2023/09/30 05:47:57;;;;;;;15.45;7.15;;;16.00;82.50;;;;;;4964253;28;20580;-62
2023/09/30 05:50:26;;;;;;;16.27;6.90;;;16.10;82.80;;;;;;4977606;28;20415;-63
2023/09/30 05:52:53;;;;;;;19.00;7.68;;;16.10;82.30;;;;;;4978871;28;20030;-63
2023/09/30 05:55:22;;;;;;;15.57;6.85;;;16.10;82.20;;;;;;4983296;28;20041;-63
2023/09/30 05:57:52;;;;;;;14.20;6.25;;;16.10;82.20;;;;;;4981486;28;20572;-64
2023/09/30 06:00:30;;;;;;;15.27;6.70;;;16.20;82.40;;;;;;4979305;28;20104;-63
2023/09/30 06:02:56;;;;;;;15.23;6.10;;;16.20;82.20;;;;;;4974420;28;20034;-63
2023/09/30 06:05:26;;;;;;;18.48;6.90;;;16.10;82.20;;;;;;4972979;28;20656;-63
2023/09/30 06:07:53;;;;;;;16.02;6.90;;;16.20;82.20;;;;;;4984212;28;20041;-63
2023/09/30 06:10:19;;;;;;;13.75;6.63;;;16.30;82.30;;;;;;4981378;28;20399;-63
2023/09/30 06:12:46;;;;;;;18.77;6.80;;;16.30;82.10;;;;;;4981571;28;20038;-63
2023/09/30 06:15:14;;;;;;;17.27;6.90;;;16.30;82.20;;;;;;4985105;28;20603;-63
2023/09/30 06:17:40;;;;;;;18.70;6.97;;;16.30;82.20;;;;;;4982920;28;20383;-62
2023/09/30 06:20:09;;;;;;;16.40;7.00;;;16.40;82.30;;;;;;4982449;28;20447;-63
2023/09/30 06:22:35;;;;;;;16.60;6.78;;;16.40;82.20;;;;;;4978413;28;20092;-63
2023/09/30 06:25:02;;;;;;;19.05;6.90;;;16.40;82.10;;;;;;4977801;28;20054;-63
2023/09/30 06:27:27;;;;;;;16.55;6.68;;;16.40;82.20;;;;;;4977762;28;20042;-63
2023/09/30 06:29:53;;;;;;;14.25;5.90;;;16.50;82.20;;;;;;4978521;28;20065;-63
2023/09/30 06:32:18;;;;;;;13.50;6.20;;;16.50;82.00;;;;;;4979160;28;20035;-63
2023/09/30 06:34:44;;;;;;;14.63;6.93;;;16.50;82.00;;;;;;4977362;28;20050;-63
2023/09/30 06:37:10;;;;;;;13.55;6.45;;;16.50;82.20;;;;;;4978152;28;20045;-63
2023/09/30 06:39:35;;;;;;;16.35;6.63;;;16.50;82.30;;;;;;4985350;28;20066;-63
2023/09/30 06:42:01;;;;;;;16.25;7.10;;;16.50;82.40;;;;;;4984147;28;20038;-63
2023/09/30 06:44:28;;;;;;;15.50;6.82;;;16.50;82.40;;;;;;4985251;28;20076;-63
2023/09/30 06:46:54;;;;;;;13.85;6.25;;;16.60;82.40;;;;;;4984808;28;20109;-63
2023/09/30 06:49:20;;;;;;;13.93;5.90;;;16.60;82.40;;;;;;4981657;28;20043;-63
2023/09/30 06:51:47;;;;;;;17.55;7.07;;;16.70;82.60;;;;;;4984338;28;20042;-63
2023/09/30 06:54:13;;;;;;;18.23;7.22;;;16.70;82.60;;;;;;4983099;28;20096;-63
2023/09/30 06:56:38;;;;;;;17.35;6.63;;;16.70;82.60;;;;;;4983297;28;20524;-63
2023/09/30 06:59:04;;;;;;;15.52;6.50;;;16.70;82.60;;;;;;4985032;28;20028;-63
2023/09/30 07:01:29;;;;;;;15.35;6.55;;;16.80;82.70;;;;;;4980170;28;20320;-63
2023/09/30 07:03:55;;;;;;;13.52;6.18;;;16.80;82.70;;;;;;4980767;28;20039;-63
2023/09/30 07:06:24;;;;;;;15.13;6.50;;;16.80;82.70;;;;;;4981323;28;20042;-63
2023/09/30 07:08:50;;;;;;;13.93;6.60;;;16.80;82.80;;;;;;4985641;28;20040;-63
2023/09/30 07:11:16;;;;;;;15.45;6.85;;;16.90;82.80;;;;;;4981288;28;20030;-63
2023/09/30 07:13:42;;;;;;;14.35;6.20;;;16.90;82.70;;;;;;4980664;28;20044;-63
2023/09/30 07:16:07;;;;;;;14.23;5.78;;;17.00;82.70;;;;;;4983393;28;20030;-62
2023/09/30 07:18:33;;;;;;;14.63;6.38;;;17.00;82.70;;;;;;4986167;28;20050;-62
2023/09/30 07:20:59;;;;;;;14.07;6.25;;;17.00;82.70;;;;;;4983452;28;20038;-61
2023/09/30 07:23:24;;;;;;;16.75;6.18;;;17.10;82.90;;;;;;4986479;28;20047;-62
2023/09/30 07:25:50;;;;;;;14.50;6.53;;;17.10;82.80;;;;;;4981530;28;20034;-63
2023/09/30 07:28:15;;;;;;;14.15;6.35;;;17.20;82.90;;;;;;4982181;28;20040;-63
2023/09/30 07:30:41;;;;;;;13.75;5.82;;;17.20;82.90;;;;;;4985200;28;20042;-62
2023/09/30 07:33:07;;;;;;;14.30;6.32;;;17.20;82.90;;;;;;4985868;28;20193;-62
2023/09/30 07:35:33;;;;;;;12.93;5.70;;;17.20;83.10;;;;;;4983992;28;20046;-63
2023/09/30 07:37:59;;;;;;;12.75;5.65;;;17.20;83.20;;;;;;4985368;28;20404;-63
2023/09/30 07:40:24;;;;;;;15.18;6.65;;;17.20;83.10;;;;;;4986331;28;20038;-63
2023/09/30 07:42:51;;;;;;;12.98;5.55;;;17.30;83.40;;;;;;4984524;28;20065;-62
2023/09/30 07:45:16;;;;;;;13.07;5.90;;;17.30;83.30;;;;;;4986904;28;20054;-63
2023/09/30 07:47:45;;;;;;;13.60;5.50;;;17.30;83.20;;;;;;4984809;28;20320;-63
2023/09/30 07:50:12;;;;;;;14.52;6.38;;;17.40;83.30;;;;;;4982327;28;20046;-63
2023/09/30 07:52:39;;;;;;;12.52;6.30;;;17.40;83.20;;;;;;4982944;28;20034;-63
2023/09/30 07:55:05;;;;;;;16.23;6.30;;;17.40;83.10;;;;;;4985865;28;20599;-63
2023/09/30 07:57:31;;;;;;;13.73;6.00;;;17.40;83.10;;;;;;4985805;28;20184;-63
2023/09/30 07:59:56;;;;;;;11.45;5.68;;;17.50;83.10;;;;;;4982979;28;20125;-63
2023/09/30 08:02:24;;;;;;;13.88;6.03;;;17.60;83.30;;;;;;4981310;28;20088;-63
2023/09/30 08:04:49;;;;;;;14.82;6.43;;;17.60;83.30;;;;;;4983163;28;20039;-63
2023/09/30 08:07:15;;;;;;;14.20;5.95;;;17.60;83.30;;;;;;4981851;28;20046;-63
2023/09/30 08:09:41;;;;;;;12.02;5.80;;;17.70;83.20;;;;;;4985038;28;20053;-62
2023/09/30 08:12:06;;;;;;;13.85;6.22;;;17.70;83.10;;;;;;4979374;28;20041;-63
2023/09/30 08:14:32;;;;;;;11.73;6.30;;;17.80;83.00;;;;;;4986652;28;20125;-62
2023/09/30 08:16:58;;;;;;;11.70;5.65;;;17.80;82.90;;;;;;4986251;28;20042;-63
2023/09/30 08:19:23;;;;;;;11.88;5.97;;;17.90;82.70;;;;;;4986259;28;20042;-63
2023/09/30 08:21:49;;;;;;;13.32;6.30;;;17.90;82.70;;;;;;4982051;28;20045;-63
2023/09/30 08:24:14;;;;;;;12.63;6.05;;;18.00;82.60;;;;;;4986242;28;20088;-62
2023/09/30 08:26:41;;;;;;;11.52;5.93;;;18.00;82.60;;;;;;4982243;28;20042;-63
2023/09/30 08:29:06;;;;;;;12.95;6.30;;;18.00;82.40;;;;;;4987042;28;20029;-63
2023/09/30 08:31:32;;;;;;;12.88;6.07;;;18.00;82.20;;;;;;4986416;28;20046;-63
2023/09/30 08:33:58;;;;;;;12.00;5.93;;;18.00;82.20;;;;;;4983539;28;20505;-64
2023/09/30 08:36:24;;;;;;;10.63;5.32;;;18.00;82.30;;;;;;4984580;28;20042;-63
2023/09/30 08:38:50;;;;;;;10.52;5.35;;;18.10;82.50;;;;;;4986895;28;20552;-63
2023/09/30 08:41:33;;;;;;;11.77;6.05;;;18.20;82.20;;;;;;4986637;28;20038;-63
2023/09/30 08:44:01;;;;;;;13.40;5.75;;;18.20;81.90;;;;;;4986027;28;20069;-61
2023/09/30 08:46:31;;;;;;;13.40;5.80;;;18.30;82.70;;;;;;4986415;28;20462;-63
2023/09/30 08:48:58;;;;;;;10.80;5.50;;;18.30;81.60;;;;;;4986614;28;20034;-63
2023/09/30 08:51:24;;;;;;;11.25;5.40;;;18.40;81.50;;;;;;4981254;28;20521;-63
2023/09/30 08:53:52;;;;;;;10.73;4.88;;;18.50;81.50;;;;;;4985748;28;20030;-63
2023/09/30 08:56:20;;;;;;;9.48;4.88;;;18.50;81.20;;;;;;4984862;28;20042;-63
2023/09/30 08:58:46;;;;;;;9.73;4.85;;;18.60;80.80;;;;;;4987518;28;20492;-63
2023/09/30 09:01:12;;;;;;;13.48;5.78;;;18.60;80.70;;;;;;4986196;28;20049;-63
2023/09/30 09:03:38;;;;;;;9.13;5.07;;;18.70;80.50;;;;;;4985575;28;20452;-63
2023/09/30 09:06:04;;;;;;;10.70;5.20;;;18.80;80.60;;;;;;4986748;28;20125;-63
2023/09/30 09:08:30;;;;;;;10.80;5.25;;;18.80;80.30;;;;;;4986209;28;20137;-63
2023/09/30 09:11:00;;;;;;;12.57;5.60;;;18.90;80.10;;;;;;4984548;28;20109;-63
2023/09/30 09:13:26;;;;;;;12.25;6.10;;;19.00;79.60;;;;;;4985368;28;20042;-63
2023/09/30 09:16:10;;;;;;;13.02;6.60;;;19.10;79.40;;;;;;4986158;28;20041;-63
2023/09/30 09:18:37;;;;;;;13.80;6.17;;;19.10;78.70;;;;;;4984022;28;20140;-63
2023/09/30 09:21:11;;;;;;;14.10;7.07;;;19.20;78.90;;;;;;4986082;28;20325;-63
2023/09/30 09:23:45;;;;;;;15.23;7.28;;;19.20;78.70;;;;;;4986995;28;20034;-62
2023/09/30 09:26:13;;;;;;;15.10;7.78;;;19.30;78.60;;;;;;4985896;28;20116;-63
2023/09/30 09:28:39;;;;;;;17.30;8.02;;;19.30;78.40;;;;;;4985516;28;20038;-63
2023/09/30 09:31:26;;;;;;;13.07;6.93;;;19.40;78.10;;;;;;4985380;28;20030;-63
2023/09/30 09:33:53;;;;;;;13.30;6.65;;;19.40;77.70;;;;;;4985186;28;20030;-63
2023/09/30 09:36:22;;;;;;;13.05;6.75;;;19.50;77.90;;;;;;4986649;28;20034;-64
2023/09/30 09:38:53;;;;;;;15.55;6.60;;;19.50;77.90;;;;;;4986766;28;20038;-62
2023/09/30 09:41:20;;;;;;;10.27;5.75;;;19.60;77.80;;;;;;4986629;28;20039;-63
2023/09/30 09:43:49;;;;;;;13.40;6.05;;;19.60;77.80;;;;;;4989895;28;20046;-63
2023/09/30 09:46:16;;;;;;;10.07;5.80;;;19.70;77.70;;;;;;4988600;28;20031;-62
2023/09/30 09:48:45;;;;;;;13.38;6.00;;;19.70;77.50;;;;;;4990240;28;20062;-63
2023/09/30 09:51:16;;;;;;;10.07;5.97;;;19.80;77.30;;;;;;4990532;28;20030;-63
2023/09/30 09:53:42;;;;;;;10.95;6.20;;;19.90;77.10;;;;;;4990317;28;20053;-63
2023/09/30 09:56:12;;;;;;;10.10;5.53;;;19.90;76.70;;;;;;4988563;28;20046;-63
2023/09/30 09:58:40;;;;;;;12.40;6.28;;;20.00;76.50;;;;;;4989229;28;20042;-63
2023/09/30 10:01:06;;;;;;;12.65;6.15;;;20.00;76.30;;;;;;4988954;28;20065;-63
2023/09/30 10:03:32;;;;;;;13.07;5.82;;;20.10;75.70;;;;;;4987602;28;20089;-63
2023/09/30 10:05:59;;;;;;;9.85;5.93;;;20.10;75.50;;;;;;4989324;28;20561;-63
2023/09/30 10:08:36;;;;;;;11.85;5.97;;;20.20;75.20;;;;;;4989228;28;20038;-64
2023/09/30 10:11:02;;;;;;;13.80;5.57;;;20.30;75.00;;;;;;4989175;28;20039;-63
2023/09/30 10:13:52;;;;;;;9.32;5.22;;;20.30;75.20;;;;;;4989529;28;20042;-63
2023/09/30 10:16:36;;;;;;;13.07;5.88;;;20.40;74.50;;;;;;4989413;28;20096;-63
2023/09/30 10:19:15;;;;;;;11.00;6.00;;;20.40;73.70;;;;;;4988386;28;20049;-63
2023/09/30 10:22:19;;;;;;;10.75;5.88;;;20.50;73.50;;;;;;4989133;28;20038;-63
2023/09/30 10:24:46;;;;;;;11.93;5.70;;;20.50;73.50;;;;;;4989134;28;20043;-63
2023/09/30 10:27:31;;;;;;;11.15;5.35;;;20.60;73.80;;;;;;4989210;28;20556;-63
2023/09/30 10:30:09;;;;;;;10.88;5.28;;;20.60;73.00;;;;;;4989045;28;20039;-63
2023/09/30 10:33:01;;;;;;;11.05;5.68;;;20.60;73.00;;;;;;4987651;28;20045;-63
2023/09/30 10:35:27;;;;;;;9.93;5.28;;;20.70;72.60;;;;;;4985839;28;20046;-63
2023/09/30 10:38:21;;;;;;;9.68;4.65;;;20.70;73.40;;;;;;4990183;28;20038;-63
2023/09/30 10:40:47;;;;;;;13.40;6.35;;;20.80;72.80;;;;;;4989291;28;20498;-63
2023/09/30 10:43:41;;;;;;;11.57;5.65;;;20.80;72.50;;;;;;4989635;28;20038;-63
2023/09/30 10:46:28;;;;;;;11.40;5.63;;;20.80;71.10;;;;;;4989316;28;20034;-63
2023/09/30 10:48:53;;;;;;;11.48;5.88;;;20.80;70.90;;;;;;4989315;28;20062;-63
2023/09/30 10:51:23;;;;;;;11.98;5.63;;;20.80;71.70;;;;;;4988533;28;20141;-63
2023/09/30 10:53:52;;;;;;;9.57;5.57;;;20.80;71.50;;;;;;4986878;28;20038;-63
2023/09/30 10:56:19;;;;;;;9.07;5.25;;;20.80;71.40;;;;;;4985669;28;20042;-64
2023/09/30 10:58:47;;;;;;;12.48;5.97;;;20.80;71.60;;;;;;4984738;28;20038;-63
2023/09/30 11:01:15;;;;;;;11.50;5.70;;;20.90;71.30;;;;;;4988400;28;20034;-63
2023/09/30 11:03:41;;;;;;;13.75;6.20;;;20.90;71.60;;;;;;4987669;28;20488;-63
2023/09/30 11:06:07;;;;;;;13.75;6.88;;;20.90;70.70;;;;;;4986356;28;20053;-63
2023/09/30 11:08:35;;;;;;;13.65;6.72;;;20.90;69.80;;;;;;4986555;28;20042;-63
2023/09/30 11:11:01;;;;;;;13.43;6.68;;;20.90;69.30;;;;;;4983258;28;20366;-64
2023/09/30 11:13:36;;;;;;;14.07;6.68;;;20.90;69.00;;;;;;4985753;28;20138;-63
2023/09/30 11:16:07;;;;;;;14.80;7.03;;;20.90;68.30;;;;;;4989323;28;20041;-63
2023/09/30 11:18:32;;;;;;;16.48;6.68;;;20.90;68.80;;;;;;4985210;28;20133;-63
2023/09/30 11:21:04;;;;;;;13.27;6.85;;;20.90;68.70;;;;;;4986709;28;20121;-64
2023/09/30 11:23:30;;;;;;;16.25;6.93;;;20.90;68.10;;;;;;4989450;28;20042;-63
2023/09/30 11:25:56;;;;;;;14.10;6.78;;;20.90;68.10;;;;;;4989501;28;20302;-63
2023/09/30 11:28:25;;;;;;;16.15;6.93;;;20.90;68.30;;;;;;4989367;28;20030;-63
2023/09/30 11:30:59;;;;;;;14.70;7.25;;;21.00;67.80;;;;;;4989413;28;20031;-63
2023/09/30 11:33:25;;;;;;;16.63;7.25;;;21.00;66.80;;;;;;4989269;28;20061;-63
2023/09/30 11:35:58;;;;;;;17.25;7.68;;;21.00;67.10;;;;;;4989901;28;20604;-63
2023/09/30 11:38:24;;;;;;;16.85;7.45;;;21.10;65.30;;;;;;4989155;28;20129;-63
2023/09/30 11:41:05;;;;;;;16.65;7.50;;;21.10;65.70;;;;;;4989142;28;20157;-63
2023/09/30 11:43:31;;;;;;;13.75;6.47;;;21.20;64.20;;;;;;4989237;28;20096;-63
2023/09/30 11:46:13;;;;;;;14.73;7.05;;;21.20;65.70;;;;;;4988891;28;20042;-63
2023/09/30 11:48:59;;;;;;;15.75;7.25;;;21.20;64.20;;;;;;4985486;28;20066;-63
2023/09/30 11:51:26;;;;;;;16.60;7.43;;;21.30;65.00;;;;;;4985827;28;20357;-63
2023/09/30 11:54:00;;;;;;;15.82;7.07;;;21.30;64.30;;;;;;4979591;28;20510;-63
2023/09/30 11:56:29;;;;;;;17.77;7.47;;;21.30;64.10;;;;;;4981183;28;20051;-63
2023/09/30 11:58:55;;;;;;;16.33;7.68;;;21.30;64.10;;;;;;4979792;28;20050;-64
2023/09/30 12:01:22;;;;;;;15.15;6.95;;;21.30;63.40;;;;;;4981592;28;20462;-63
2023/09/30 12:03:48;;;;;;;17.08;8.00;;;21.40;62.90;;;;;;4982062;28;20125;-63
2023/09/30 12:06:16;;;;;;;15.40;7.13;;;21.30;62.60;;;;;;4978559;28;22312;-63
2023/09/30 12:08:42;;;;;;;15.68;7.07;;;21.30;63.10;;;;;;4980052;28;20085;-63
2023/09/30 12:11:07;;;;;;;14.85;6.90;;;21.30;63.30;;;;;;4979156;28;20042;-62
2023/09/30 12:13:33;;;;;;;15.35;7.35;;;21.30;63.30;;;;;;4982874;28;20045;-63
2023/09/30 12:15:58;;;;;;;16.90;7.25;;;21.30;63.00;;;;;;4979629;28;20053;-63
2023/09/30 12:18:24;;;;;;;13.48;7.25;;;21.30;63.20;;;;;;4984180;28;20285;-63
2023/09/30 12:20:52;;;;;;;16.08;7.30;;;21.30;63.10;;;;;;4979220;28;20580;-62
2023/09/30 12:23:18;;;;;;;14.48;6.65;;;21.30;63.40;;;;;;4976174;28;20522;-63
2023/09/30 12:25:44;;;;;;;13.82;6.60;;;21.40;63.50;;;;;;4981619;28;20077;-64
2023/09/30 12:28:10;;;;;;;16.00;7.30;;;21.40;63.40;;;;;;4984543;28;20113;-64
2023/09/30 12:30:35;;;;;;;13.32;6.30;;;21.40;63.40;;;;;;4976749;28;20616;-63
2023/09/30 12:33:01;;;;;;;14.38;7.15;;;21.40;62.90;;;;;;4982961;28;20030;-63
2023/09/30 12:35:27;;;;;;;16.45;7.07;;;21.40;62.00;;;;;;4979199;28;20038;-63
2023/09/30 12:37:53;;;;;;;15.35;6.90;;;21.50;61.30;;;;;;4984215;28;20098;-63
2023/09/30 12:40:18;;;;;;;15.55;7.07;;;21.50;61.20;;;;;;4981832;28;20042;-63